Viimsi — ES2084 — position and weather

sailwx.info

Track history (hours):
 
Tides and Currents Weather Stations Pressure Air Temp Water Temp Dewpoint Dewpoint Depression Visibility Wind Speed Wind Dir Waves Ship Positions

Viimsi

Last reported at 2016-Feb-07 10:34 UTC. Time now 2016-Feb-07 10:40 UTC.
Position N 59°30' E 024°49'.

Length 78 m; draft 5.3 m.

Type: Ship. MMSI: 276297000.

Date/timePositionNaut miles runAvg speedWind from/ knotsBaromVisibWave heightAir tempDewpointWater temp
2016-Feb-07 10:34N 59°30' E 024°49'0 0.0
2016-Feb-07 09:34N 59°30' E 024°49'0 0.0
2016-Feb-07 08:34N 59°30' E 024°49'0 0.0
2016-Feb-07 07:33N 59°30' E 024°49'4 4.4
2016-Feb-07 06:34N 59°30' E 024°40'2 2.3
2016-Feb-07 05:34N 59°28' E 024°39'0 0.0
2016-Feb-07 04:33N 59°28' E 024°39'0 0.0
2016-Feb-07 03:34N 59°28' E 024°39'0 0.0
2016-Feb-07 02:33N 59°28' E 024°39'0 0.0
2016-Feb-07 01:34N 59°28' E 024°39'0 0.0
2016-Feb-07 00:33N 59°28' E 024°39'0 0.0
2016-Feb-06 23:33N 59°28' E 024°39'0 0.0
2016-Feb-06 22:34N 59°28' E 024°39'0 0.0
2016-Feb-06 21:34N 59°28' E 024°39'0 0.0
2016-Feb-06 20:33N 59°28' E 024°39'0 0.0
2016-Feb-06 19:34N 59°28' E 024°39'0 0.0
2016-Feb-06 18:33N 59°28' E 024°39'0 0.0
2016-Feb-06 17:33N 59°28' E 024°39'0 0.0
2016-Feb-06 16:34N 59°28' E 024°39'0 0.0
2016-Feb-06 15:34N 59°28' E 024°39'0 0.0
2016-Feb-06 14:33N 59°28' E 024°39'0 0.0
2016-Feb-06 13:34N 59°28' E 024°39'0 0.0
2016-Feb-06 12:33N 59°28' E 024°39'0 0.0
2016-Feb-06 11:34N 59°28' E 024°39'0 0.0
2016-Feb-06 10:33N 59°28' E 024°39'1 1.4
2016-Feb-06 09:33N 59°29' E 024°37'8 8.4
2016-Feb-06 08:33N 59°37' E 024°41'5 4.8
2016-Feb-06 07:33N 59°35' E 024°49'0 0.0
2016-Feb-06 06:34N 59°35' E 024°49'0 0.0
2016-Feb-06 05:34N 59°35' E 024°49'0 0.0
2016-Feb-06 04:34N 59°35' E 024°49'0 0.1
2016-Feb-06 03:34N 59°35' E 024°49'3 0.4
2016-Feb-05 20:33N 59°33' E 024°54'3 0.8
2016-Feb-05 16:34N 59°35' E 024°48'1 0.8
2016-Feb-05 15:33N 59°35' E 024°49'0 0.0
2016-Feb-05 14:33N 59°35' E 024°49'0 0.0
2016-Feb-05 13:25N 59°35' E 024°49'0 0.2
2016-Feb-05 12:31N 59°34' E 024°49'4 3.9
2016-Feb-05 11:34N 59°37' E 024°44'7 7.4
2016-Feb-05 10:34N 59°30' E 024°46'3 2.6
2016-Feb-05 09:34N 59°28' E 024°43'0 0.0
2016-Feb-05 08:33N 59°28' E 024°43'0 0.0
2016-Feb-05 07:34N 59°28' E 024°43'0 0.0
2016-Feb-05 06:34N 59°28' E 024°43'0 0.0
2016-Feb-05 05:33N 59°28' E 024°43'0 0.0
2016-Feb-05 04:34N 59°28' E 024°43'0 0.0
2016-Feb-05 03:34N 59°28' E 024°43'0 0.0
2016-Feb-05 02:34N 59°28' E 024°43'0 0.0
2016-Feb-05 01:34N 59°28' E 024°43'0 0.0
2016-Feb-05 00:34N 59°28' E 024°43'0 0.0
2016-Feb-04 23:34N 59°28' E 024°43'0 0.0
2016-Feb-04 22:34N 59°28' E 024°43'0 0.0
2016-Feb-04 21:34N 59°28' E 024°43'0 0.0
2016-Feb-04 20:34N 59°28' E 024°43'0 0.0
2016-Feb-04 19:34N 59°28' E 024°43'0 0.0
2016-Feb-04 18:33N 59°28' E 024°43'0 0.0
2016-Feb-04 17:34N 59°28' E 024°43'0 0.0
2016-Feb-04 16:33N 59°28' E 024°43'0 0.0
2016-Feb-04 15:34N 59°28' E 024°43'0 0.0
2016-Feb-04 14:34N 59°28' E 024°43'0 0.0
2016-Feb-04 13:34N 59°28' E 024°43'5 4.8
2016-Feb-04 12:34N 59°30' E 024°34'1 0.2
2016-Feb-04 06:33N 59°30' E 024°35'8 8.3
2016-Feb-04 05:34N 59°38' E 024°43'3 0.3
2016-Feb-03 21:32N 59°37' E 024°47'5 5.7
2016-Feb-03 20:33N 59°32' E 024°44'5 4.6
2016-Feb-03 19:33N 59°28' E 024°39'0 0.0
2016-Feb-03 18:34N 59°28' E 024°39'0 0.0
2016-Feb-03 17:32N 59°28' E 024°39'0 0.0
2016-Feb-03 16:33N 59°28' E 024°39'0 0.0
2016-Feb-03 15:33N 59°28' E 024°39'0 0.0
2016-Feb-03 14:32N 59°28' E 024°39'0 0.0
2016-Feb-03 13:34N 59°28' E 024°39'0 0.0
2016-Feb-03 12:33N 59°28' E 024°39'0 0.0
2016-Feb-03 11:33N 59°28' E 024°39'0 0.0
2016-Feb-03 10:33N 59°28' E 024°39'0 0.0
2016-Feb-03 09:30N 59°28' E 024°39'0 0.0
2016-Feb-03 08:29N 59°28' E 024°39'0 0.0
2016-Feb-03 07:24N 59°28' E 024°39'0 0.0
2016-Feb-03 06:34N 59°28' E 024°39'0 0.0
2016-Feb-03 05:33N 59°28' E 024°39'0 0.2
2016-Feb-03 04:34N 59°28' E 024°39'6 5.6
2016-Feb-03 03:34N 59°33' E 024°42'4 3.9
2016-Feb-03 02:25N 59°36' E 024°49'1 0.9
2016-Feb-03 01:33N 59°35' E 024°50'0 0.0
2016-Feb-03 00:27N 59°35' E 024°50'0 0.0
2016-Feb-02 23:33N 59°35' E 024°50'0 0.0
2016-Feb-02 22:33N 59°35' E 024°50'0 0.0
2016-Feb-02 21:33N 59°35' E 024°50'0 0.0
2016-Feb-02 11:34N 59°36' E 024°50'5 4.5
2016-Feb-02 10:33N 59°32' E 024°44'5 4.9
2016-Feb-02 09:33N 59°28' E 024°39'0 0.0
2016-Feb-02 08:32N 59°28' E 024°39'0 0.0
2016-Feb-02 07:33N 59°28' E 024°39'0 0.0
2016-Feb-02 06:33N 59°28' E 024°39'0 0.0
2016-Feb-02 05:33N 59°28' E 024°39'0 0.0
2016-Feb-02 04:32N 59°28' E 024°39'0 0.0
2016-Feb-02 03:32N 59°28' E 024°39'0 0.0
2016-Feb-02 02:33N 59°28' E 024°39'0 0.0
2016-Feb-02 01:33N 59°28' E 024°39'0 0.0
2016-Feb-02 00:33N 59°28' E 024°39'0 0.0
2016-Feb-01 23:33N 59°28' E 024°39'0 0.0
2016-Feb-01 22:33N 59°28' E 024°39'0 0.1
2016-Feb-01 21:33N 59°28' E 024°39'1 0.6
2016-Feb-01 20:34N 59°27' E 024°39'1 0.5
2016-Feb-01 19:31N 59°28' E 024°39'0 0.0
2016-Feb-01 18:34N 59°28' E 024°39'0 0.0
2016-Feb-01 17:34N 59°28' E 024°39'0 0.0
2016-Feb-01 16:33N 59°28' E 024°39'0 0.0
2016-Feb-01 15:33N 59°28' E 024°39'1 0.7
2016-Feb-01 14:34N 59°28' E 024°38'5 1.2
2016-Feb-01 10:29N 59°31' E 024°30'0 0.2
2016-Feb-01 07:33N 59°30' E 024°31'7 6.7
2016-Feb-01 06:34N 59°28' E 024°43'0 0.2
2016-Feb-01 05:34N 59°28' E 024°43'0 0.0
2016-Feb-01 04:34N 59°28' E 024°43'0 0.0
2016-Feb-01 03:33N 59°28' E 024°43'0 0.0
2016-Feb-01 02:34N 59°28' E 024°43'0 0.0
2016-Feb-01 01:33N 59°28' E 024°43'0 0.0
2016-Feb-01 00:34N 59°28' E 024°43'0 0.0
2016-Jan-31 23:33N 59°28' E 024°43'0 0.0
2016-Jan-31 22:34N 59°28' E 024°43'0 0.0
2016-Jan-31 21:34N 59°28' E 024°43'0 0.0
2016-Jan-31 20:34N 59°28' E 024°43'0 0.0
2016-Jan-31 19:33N 59°28' E 024°43'0 0.0
2016-Jan-31 18:34N 59°28' E 024°43'0 0.0
2016-Jan-31 17:34N 59°28' E 024°43'0 0.0
2016-Jan-31 16:34N 59°28' E 024°43'0 0.0
2016-Jan-31 15:33N 59°28' E 024°43'0 0.0
2016-Jan-31 14:34N 59°28' E 024°43'0 0.0
2016-Jan-31 13:34N 59°28' E 024°43'0 0.0
2016-Jan-31 12:34N 59°28' E 024°43'0 0.0
2016-Jan-31 11:34N 59°28' E 024°43'0 0.0
2016-Jan-31 10:33N 59°28' E 024°43'1 1.0
2016-Jan-31 09:34N 59°28' E 024°45'3 2.5
2016-Jan-31 08:34N 59°30' E 024°48'1 0.6
2016-Jan-31 07:34N 59°30' E 024°49'0 0.0
2016-Jan-31 06:33N 59°30' E 024°49'0 0.0
2016-Jan-31 05:34N 59°30' E 024°49'0 0.0
2016-Jan-31 04:34N 59°30' E 024°49'0 0.0
2016-Jan-31 03:34N 59°30' E 024°49'0 0.0
2016-Jan-31 02:34N 59°30' E 024°49'0 0.0
2016-Jan-31 01:33N 59°30' E 024°49'0 0.0
2016-Jan-31 00:33N 59°30' E 024°49'0 0.0
2016-Jan-30 23:33N 59°30' E 024°49'0 0.0
2016-Jan-30 22:33N 59°30' E 024°49'0 0.0
2016-Jan-30 21:33N 59°30' E 024°49'0 0.0
2016-Jan-30 20:34N 59°30' E 024°49'0 0.0
2016-Jan-30 19:33N 59°30' E 024°49'0 0.0
2016-Jan-30 18:34N 59°30' E 024°49'0 0.0
2016-Jan-30 17:34N 59°30' E 024°49'0 0.0
2016-Jan-30 16:33N 59°30' E 024°49'0 0.0
2016-Jan-30 15:34N 59°30' E 024°49'0 0.0
2016-Jan-30 14:33N 59°30' E 024°49'0 0.0
2016-Jan-30 13:34N 59°30' E 024°49'0 0.0
2016-Jan-30 12:34N 59°30' E 024°49'2 1.6
2016-Jan-30 11:33N 59°29' E 024°46'4 3.8
2016-Jan-30 10:32N 59°28' E 024°39'0 0.0
2016-Jan-30 09:34N 59°28' E 024°39'0 0.0
2016-Jan-30 08:27N 59°28' E 024°39'0 0.0
2016-Jan-30 07:32N 59°28' E 024°39'0 0.0
2016-Jan-30 06:33N 59°28' E 024°39'0 0.0
2016-Jan-30 05:34N 59°28' E 024°39'0 0.0
2016-Jan-30 04:34N 59°28' E 024°39'0 0.0
2016-Jan-30 03:33N 59°28' E 024°39'0 0.0
2016-Jan-30 02:34N 59°28' E 024°39'0 0.0
2016-Jan-30 01:34N 59°28' E 024°39'0 0.0
2016-Jan-30 00:32N 59°28' E 024°39'0 0.0
2016-Jan-29 23:33N 59°28' E 024°39'0 0.0
2016-Jan-29 22:32N 59°28' E 024°39'0 0.0
2016-Jan-29 21:27N 59°28' E 024°39'0 0.0
2016-Jan-29 20:34N 59°28' E 024°39'0 0.0
2016-Jan-29 19:33N 59°28' E 024°39'0 0.0
2016-Jan-29 18:32N 59°28' E 024°39'0 0.0
2016-Jan-29 17:34N 59°28' E 024°39'0 0.0
2016-Jan-29 16:33N 59°28' E 024°39'0 0.0
2016-Jan-29 15:33N 59°28' E 024°39'0 0.0
2016-Jan-29 14:26N 59°28' E 024°39'1 1.5
2016-Jan-29 13:33N 59°29' E 024°38'3 2.7
2016-Jan-29 12:33N 59°28' E 024°42'0 0.0
2016-Jan-29 11:33N 59°28' E 024°42'0 0.0
2016-Jan-29 10:33N 59°28' E 024°42'0 0.0
2016-Jan-29 09:33N 59°28' E 024°42'0 0.0
2016-Jan-29 08:33N 59°28' E 024°42'0 0.0
2016-Jan-29 07:33N 59°28' E 024°42'0 0.0
2016-Jan-29 06:33N 59°28' E 024°42'0 0.0
2016-Jan-29 05:33N 59°28' E 024°42'0 0.0
2016-Jan-29 04:33N 59°28' E 024°42'0 0.0
2016-Jan-29 03:33N 59°28' E 024°42'0 0.0
2016-Jan-29 02:33N 59°28' E 024°42'0 0.0
2016-Jan-29 01:33N 59°28' E 024°42'0 0.0
2016-Jan-29 00:32N 59°28' E 024°42'0 0.0
2016-Jan-28 23:32N 59°28' E 024°42'0 0.0
2016-Jan-28 22:26N 59°27' E 024°42'0 0.0
2016-Jan-28 21:32N 59°28' E 024°42'0 0.0
2016-Jan-28 20:30N 59°27' E 024°42'0 0.0
2016-Jan-28 19:33N 59°28' E 024°42'2 2.2
2016-Jan-28 18:33N 59°30' E 024°44'8 8.3
2016-Jan-28 17:32N 59°38' E 024°44'4 4.5
2016-Jan-28 16:33N 59°35' E 024°49'0 0.3
2016-Jan-28 15:33N 59°35' E 024°50'0 0.0
2016-Jan-28 14:33N 59°35' E 024°50'0 0.1
2016-Jan-28 12:33N 59°35' E 024°50'0 0.0
2016-Jan-28 11:33N 59°35' E 024°50'  
Track history (hours):
 
Tides and Currents Weather Stations Pressure Air Temp Water Temp Dewpoint Dewpoint Depression Visibility Wind Speed Wind Dir Waves Ship Positions

Viimsi

Last reported at 2016-Feb-07 10:34 UTC. Time now 2016-Feb-07 10:40 UTC.
Position N 59°30' E 024°49'.

Length 78 m; draft 5.3 m.

Type: Ship. MMSI: 276297000.

Date/timePositionNaut miles runAvg speedWind from/ knotsBaromVisibWave heightAir tempDewpointWater temp
2016-Feb-07 10:34N 59°30' E 024°49'0 0.0
2016-Feb-07 09:34N 59°30' E 024°49'0 0.0
2016-Feb-07 08:34N 59°30' E 024°49'0 0.0
2016-Feb-07 07:33N 59°30' E 024°49'4 4.4
2016-Feb-07 06:34N 59°30' E 024°40'2 2.3
2016-Feb-07 05:34N 59°28' E 024°39'0 0.0
2016-Feb-07 04:33N 59°28' E 024°39'0 0.0
2016-Feb-07 03:34N 59°28' E 024°39'0 0.0
2016-Feb-07 02:33N 59°28' E 024°39'0 0.0
2016-Feb-07 01:34N 59°28' E 024°39'0 0.0
2016-Feb-07 00:33N 59°28' E 024°39'0 0.0
2016-Feb-06 23:33N 59°28' E 024°39'0 0.0
2016-Feb-06 22:34N 59°28' E 024°39'0 0.0
2016-Feb-06 21:34N 59°28' E 024°39'0 0.0
2016-Feb-06 20:33N 59°28' E 024°39'0 0.0
2016-Feb-06 19:34N 59°28' E 024°39'0 0.0
2016-Feb-06 18:33N 59°28' E 024°39'0 0.0
2016-Feb-06 17:33N 59°28' E 024°39'0 0.0
2016-Feb-06 16:34N 59°28' E 024°39'0 0.0
2016-Feb-06 15:34N 59°28' E 024°39'0 0.0
2016-Feb-06 14:33N 59°28' E 024°39'0 0.0
2016-Feb-06 13:34N 59°28' E 024°39'0 0.0
2016-Feb-06 12:33N 59°28' E 024°39'0 0.0
2016-Feb-06 11:34N 59°28' E 024°39'0 0.0
2016-Feb-06 10:33N 59°28' E 024°39'1 1.4
2016-Feb-06 09:33N 59°29' E 024°37'8 8.4
2016-Feb-06 08:33N 59°37' E 024°41'5 4.8
2016-Feb-06 07:33N 59°35' E 024°49'0 0.0
2016-Feb-06 06:34N 59°35' E 024°49'0 0.0
2016-Feb-06 05:34N 59°35' E 024°49'0 0.0
2016-Feb-06 04:34N 59°35' E 024°49'0 0.1
2016-Feb-06 03:34N 59°35' E 024°49'3 0.4
2016-Feb-05 20:33N 59°33' E 024°54'3 0.8
2016-Feb-05 16:34N 59°35' E 024°48'1 0.8
2016-Feb-05 15:33N 59°35' E 024°49'0 0.0
2016-Feb-05 14:33N 59°35' E 024°49'0 0.0
2016-Feb-05 13:25N 59°35' E 024°49'0 0.2
2016-Feb-05 12:31N 59°34' E 024°49'4 3.9
2016-Feb-05 11:34N 59°37' E 024°44'7 7.4
2016-Feb-05 10:34N 59°30' E 024°46'3 2.6
2016-Feb-05 09:34N 59°28' E 024°43'0 0.0
2016-Feb-05 08:33N 59°28' E 024°43'0 0.0
2016-Feb-05 07:34N 59°28' E 024°43'0 0.0
2016-Feb-05 06:34N 59°28' E 024°43'0 0.0
2016-Feb-05 05:33N 59°28' E 024°43'0 0.0
2016-Feb-05 04:34N 59°28' E 024°43'0 0.0
2016-Feb-05 03:34N 59°28' E 024°43'0 0.0
2016-Feb-05 02:34N 59°28' E 024°43'0 0.0
2016-Feb-05 01:34N 59°28' E 024°43'0 0.0
2016-Feb-05 00:34N 59°28' E 024°43'0 0.0
2016-Feb-04 23:34N 59°28' E 024°43'0 0.0
2016-Feb-04 22:34N 59°28' E 024°43'0 0.0
2016-Feb-04 21:34N 59°28' E 024°43'0 0.0
2016-Feb-04 20:34N 59°28' E 024°43'0 0.0
2016-Feb-04 19:34N 59°28' E 024°43'0 0.0
2016-Feb-04 18:33N 59°28' E 024°43'0 0.0
2016-Feb-04 17:34N 59°28' E 024°43'0 0.0
2016-Feb-04 16:33N 59°28' E 024°43'0 0.0
2016-Feb-04 15:34N 59°28' E 024°43'0 0.0
2016-Feb-04 14:34N 59°28' E 024°43'0 0.0
2016-Feb-04 13:34N 59°28' E 024°43'5 4.8
2016-Feb-04 12:34N 59°30' E 024°34'1 0.2
2016-Feb-04 06:33N 59°30' E 024°35'8 8.3
2016-Feb-04 05:34N 59°38' E 024°43'3 0.3
2016-Feb-03 21:32N 59°37' E 024°47'5 5.7
2016-Feb-03 20:33N 59°32' E 024°44'5 4.6
2016-Feb-03 19:33N 59°28' E 024°39'0 0.0
2016-Feb-03 18:34N 59°28' E 024°39'0 0.0
2016-Feb-03 17:32N 59°28' E 024°39'0 0.0
2016-Feb-03 16:33N 59°28' E 024°39'0 0.0
2016-Feb-03 15:33N 59°28' E 024°39'0 0.0
2016-Feb-03 14:32N 59°28' E 024°39'0 0.0
2016-Feb-03 13:34N 59°28' E 024°39'0 0.0
2016-Feb-03 12:33N 59°28' E 024°39'0 0.0
2016-Feb-03 11:33N 59°28' E 024°39'0 0.0
2016-Feb-03 10:33N 59°28' E 024°39'0 0.0
2016-Feb-03 09:30N 59°28' E 024°39'0 0.0
2016-Feb-03 08:29N 59°28' E 024°39'0 0.0
2016-Feb-03 07:24N 59°28' E 024°39'0 0.0
2016-Feb-03 06:34N 59°28' E 024°39'0 0.0
2016-Feb-03 05:33N 59°28' E 024°39'0 0.2
2016-Feb-03 04:34N 59°28' E 024°39'6 5.6
2016-Feb-03 03:34N 59°33' E 024°42'4 3.9
2016-Feb-03 02:25N 59°36' E 024°49'1 0.9
2016-Feb-03 01:33N 59°35' E 024°50'0 0.0
2016-Feb-03 00:27N 59°35' E 024°50'0 0.0
2016-Feb-02 23:33N 59°35' E 024°50'0 0.0
2016-Feb-02 22:33N 59°35' E 024°50'0 0.0
2016-Feb-02 21:33N 59°35' E 024°50'0 0.0
2016-Feb-02 11:34N 59°36' E 024°50'5 4.5
2016-Feb-02 10:33N 59°32' E 024°44'5 4.9
2016-Feb-02 09:33N 59°28' E 024°39'0 0.0
2016-Feb-02 08:32N 59°28' E 024°39'0 0.0
2016-Feb-02 07:33N 59°28' E 024°39'0 0.0
2016-Feb-02 06:33N 59°28' E 024°39'0 0.0
2016-Feb-02 05:33N 59°28' E 024°39'0 0.0
2016-Feb-02 04:32N 59°28' E 024°39'0 0.0
2016-Feb-02 03:32N 59°28' E 024°39'0 0.0
2016-Feb-02 02:33N 59°28' E 024°39'0 0.0
2016-Feb-02 01:33N 59°28' E 024°39'0 0.0
2016-Feb-02 00:33N 59°28' E 024°39'0 0.0
2016-Feb-01 23:33N 59°28' E 024°39'0 0.0
2016-Feb-01 22:33N 59°28' E 024°39'0 0.1
2016-Feb-01 21:33N 59°28' E 024°39'1 0.6
2016-Feb-01 20:34N 59°27' E 024°39'1 0.5
2016-Feb-01 19:31N 59°28' E 024°39'0 0.0
2016-Feb-01 18:34N 59°28' E 024°39'0 0.0
2016-Feb-01 17:34N 59°28' E 024°39'0 0.0
2016-Feb-01 16:33N 59°28' E 024°39'0 0.0
2016-Feb-01 15:33N 59°28' E 024°39'1 0.7
2016-Feb-01 14:34N 59°28' E 024°38'5 1.2
2016-Feb-01 10:29N 59°31' E 024°30'0 0.2
2016-Feb-01 07:33N 59°30' E 024°31'7 6.7
2016-Feb-01 06:34N 59°28' E 024°43'0 0.2
2016-Feb-01 05:34N 59°28' E 024°43'0 0.0
2016-Feb-01 04:34N 59°28' E 024°43'0 0.0
2016-Feb-01 03:33N 59°28' E 024°43'0 0.0
2016-Feb-01 02:34N 59°28' E 024°43'0 0.0
2016-Feb-01 01:33N 59°28' E 024°43'0 0.0
2016-Feb-01 00:34N 59°28' E 024°43'0 0.0
2016-Jan-31 23:33N 59°28' E 024°43'0 0.0
2016-Jan-31 22:34N 59°28' E 024°43'0 0.0
2016-Jan-31 21:34N 59°28' E 024°43'0 0.0
2016-Jan-31 20:34N 59°28' E 024°43'0 0.0
2016-Jan-31 19:33N 59°28' E 024°43'0 0.0
2016-Jan-31 18:34N 59°28' E 024°43'0 0.0
2016-Jan-31 17:34N 59°28' E 024°43'0 0.0
2016-Jan-31 16:34N 59°28' E 024°43'0 0.0
2016-Jan-31 15:33N 59°28' E 024°43'0 0.0
2016-Jan-31 14:34N 59°28' E 024°43'0 0.0
2016-Jan-31 13:34N 59°28' E 024°43'0 0.0
2016-Jan-31 12:34N 59°28' E 024°43'0 0.0
2016-Jan-31 11:34N 59°28' E 024°43'0 0.0
2016-Jan-31 10:33N 59°28' E 024°43'1 1.0
2016-Jan-31 09:34N 59°28' E 024°45'3 2.5
2016-Jan-31 08:34N 59°30' E 024°48'1 0.6
2016-Jan-31 07:34N 59°30' E 024°49'0 0.0
2016-Jan-31 06:33N 59°30' E 024°49'0 0.0
2016-Jan-31 05:34N 59°30' E 024°49'0 0.0
2016-Jan-31 04:34N 59°30' E 024°49'0 0.0
2016-Jan-31 03:34N 59°30' E 024°49'0 0.0
2016-Jan-31 02:34N 59°30' E 024°49'0 0.0
2016-Jan-31 01:33N 59°30' E 024°49'0 0.0
2016-Jan-31 00:33N 59°30' E 024°49'0 0.0
2016-Jan-30 23:33N 59°30' E 024°49'0 0.0
2016-Jan-30 22:33N 59°30' E 024°49'0 0.0
2016-Jan-30 21:33N 59°30' E 024°49'0 0.0
2016-Jan-30 20:34N 59°30' E 024°49'0 0.0
2016-Jan-30 19:33N 59°30' E 024°49'0 0.0
2016-Jan-30 18:34N 59°30' E 024°49'0 0.0
2016-Jan-30 17:34N 59°30' E 024°49'0 0.0
2016-Jan-30 16:33N 59°30' E 024°49'0 0.0
2016-Jan-30 15:34N 59°30' E 024°49'0 0.0
2016-Jan-30 14:33N 59°30' E 024°49'0 0.0
2016-Jan-30 13:34N 59°30' E 024°49'0 0.0
2016-Jan-30 12:34N 59°30' E 024°49'2 1.6
2016-Jan-30 11:33N 59°29' E 024°46'4 3.8
2016-Jan-30 10:32N 59°28' E 024°39'0 0.0
2016-Jan-30 09:34N 59°28' E 024°39'0 0.0
2016-Jan-30 08:27N 59°28' E 024°39'0 0.0
2016-Jan-30 07:32N 59°28' E 024°39'0 0.0
2016-Jan-30 06:33N 59°28' E 024°39'0 0.0
2016-Jan-30 05:34N 59°28' E 024°39'0 0.0
2016-Jan-30 04:34N 59°28' E 024°39'0 0.0
2016-Jan-30 03:33N 59°28' E 024°39'0 0.0
2016-Jan-30 02:34N 59°28' E 024°39'0 0.0
2016-Jan-30 01:34N 59°28' E 024°39'0 0.0
2016-Jan-30 00:32N 59°28' E 024°39'0 0.0
2016-Jan-29 23:33N 59°28' E 024°39'0 0.0
2016-Jan-29 22:32N 59°28' E 024°39'0 0.0
2016-Jan-29 21:27N 59°28' E 024°39'0 0.0
2016-Jan-29 20:34N 59°28' E 024°39'0 0.0
2016-Jan-29 19:33N 59°28' E 024°39'0 0.0
2016-Jan-29 18:32N 59°28' E 024°39'0 0.0
2016-Jan-29 17:34N 59°28' E 024°39'0 0.0
2016-Jan-29 16:33N 59°28' E 024°39'0 0.0
2016-Jan-29 15:33N 59°28' E 024°39'0 0.0
2016-Jan-29 14:26N 59°28' E 024°39'1 1.5
2016-Jan-29 13:33N 59°29' E 024°38'3 2.7
2016-Jan-29 12:33N 59°28' E 024°42'0 0.0
2016-Jan-29 11:33N 59°28' E 024°42'0 0.0
2016-Jan-29 10:33N 59°28' E 024°42'0 0.0
2016-Jan-29 09:33N 59°28' E 024°42'0 0.0
2016-Jan-29 08:33N 59°28' E 024°42'0 0.0
2016-Jan-29 07:33N 59°28' E 024°42'0 0.0
2016-Jan-29 06:33N 59°28' E 024°42'0 0.0
2016-Jan-29 05:33N 59°28' E 024°42'0 0.0
2016-Jan-29 04:33N 59°28' E 024°42'0 0.0
2016-Jan-29 03:33N 59°28' E 024°42'0 0.0
2016-Jan-29 02:33N 59°28' E 024°42'0 0.0
2016-Jan-29 01:33N 59°28' E 024°42'0 0.0
2016-Jan-29 00:32N 59°28' E 024°42'0 0.0
2016-Jan-28 23:32N 59°28' E 024°42'0 0.0
2016-Jan-28 22:26N 59°27' E 024°42'0 0.0
2016-Jan-28 21:32N 59°28' E 024°42'0 0.0
2016-Jan-28 20:30N 59°27' E 024°42'0 0.0
2016-Jan-28 19:33N 59°28' E 024°42'2 2.2
2016-Jan-28 18:33N 59°30' E 024°44'8 8.3
2016-Jan-28 17:32N 59°38' E 024°44'4 4.5
2016-Jan-28 16:33N 59°35' E 024°49'0 0.3
2016-Jan-28 15:33N 59°35' E 024°50'0 0.0
2016-Jan-28 14:33N 59°35' E 024°50'0 0.1
2016-Jan-28 12:33N 59°35' E 024°50'0 0.0
2016-Jan-28 11:33N 59°35' E 024°50'  

Dump ship's entire track history